createdAt,value
2023-05-21T00:00:02.381Z,99103.84
2023-05-21T00:00:15.186Z,99097.63
2023-05-21T00:00:27.436Z,99097.63
2023-05-21T00:00:39.475Z,99094.03
2023-05-21T00:00:51.736Z,99095.00
2023-05-21T00:01:05.822Z,99093.09
2023-05-21T00:01:17.892Z,99095.63
2023-05-21T00:01:29.988Z,99102.66
2023-05-21T00:01:42.478Z,99089.47
2023-05-21T00:01:54.465Z,99093.94
2023-05-21T00:02:10.063Z,99093.09
2023-05-21T00:02:22.242Z,99086.13
2023-05-21T00:02:34.406Z,99088.03
2023-05-21T00:02:46.878Z,99095.84
2023-05-21T00:02:59.109Z,99093.31
2023-05-21T00:03:14.503Z,99096.66
2023-05-21T00:03:29.144Z,99097.53
2023-05-21T00:03:41.848Z,99091.41
2023-05-21T00:03:54.220Z,99094.03
2023-05-21T00:04:07.799Z,99095.00
2023-05-21T00:04:19.815Z,99095.00
2023-05-21T00:04:31.796Z,99104.56
2023-05-21T00:04:47.491Z,99100.50
2023-05-21T00:04:59.445Z,99097.84
2023-05-21T00:05:14.798Z,99088.28
2023-05-21T00:05:27.037Z,99096.19
2023-05-21T00:05:44.273Z,99093.56
2023-05-21T00:05:56.927Z,99096.06
2023-05-21T00:06:08.976Z,99094.38
2023-05-21T00:06:23.201Z,99089.00
2023-05-21T00:06:38.879Z,99095.22
2023-05-21T00:06:51.537Z,99091.75
2023-05-21T00:07:04.000Z,99091.66
2023-05-21T00:07:16.124Z,99095.22
2023-05-21T00:07:28.128Z,99098.69
2023-05-21T00:07:40.144Z,99091.66
2023-05-21T00:07:54.704Z,99096.91
2023-05-21T00:08:06.782Z,99096.91
2023-05-21T00:08:18.809Z,99093.31
2023-05-21T00:08:31.103Z,99089.00
2023-05-21T00:08:43.199Z,99098.56
2023-05-21T00:08:55.132Z,99096.91
2023-05-21T00:09:07.560Z,99096.91
2023-05-21T00:09:19.579Z,99095.22
2023-05-21T00:09:31.525Z,99097.84
2023-05-21T00:09:43.543Z,99094.38
2023-05-21T00:09:55.557Z,99089.94
2023-05-21T00:10:07.987Z,99092.69
2023-05-21T00:10:20.055Z,99088.28
2023-05-21T00:10:32.049Z,99093.56
2023-05-21T00:10:44.028Z,99093.56
2023-05-21T00:10:56.339Z,99095.22
2023-05-21T00:11:08.854Z,99094.28
2023-05-21T00:11:20.894Z,99095.13
2023-05-21T00:11:33.138Z,99092.47
2023-05-21T00:11:45.159Z,99088.03
2023-05-21T00:11:57.099Z,99092.38
2023-05-21T00:12:09.523Z,99093.31
2023-05-21T00:12:21.480Z,99095.00
2023-05-21T00:12:33.606Z,99091.41
2023-05-21T00:12:45.989Z,99097.63
2023-05-21T00:12:57.963Z,99095.84
2023-05-21T00:13:10.490Z,99089.72
2023-05-21T00:13:22.495Z,99094.03
2023-05-21T00:13:34.527Z,99096.78
2023-05-21T00:13:46.492Z,99092.38
2023-05-21T00:13:58.727Z,99096.66
2023-05-21T00:14:10.781Z,99093.09
2023-05-21T00:14:22.776Z,99090.47
2023-05-21T00:14:35.508Z,99095.00
2023-05-21T00:14:47.423Z,99096.66
2023-05-21T00:15:01.358Z,99089.72
2023-05-21T00:15:13.353Z,99092.38
2023-05-21T00:15:25.349Z,99093.31
2023-05-21T00:15:37.749Z,99091.66
2023-05-21T00:15:50.007Z,99088.28
2023-05-21T00:16:02.070Z,99094.38
2023-05-21T00:16:14.153Z,99092.69
2023-05-21T00:16:26.235Z,99093.56
2023-05-21T00:16:40.371Z,99088.28
2023-05-21T00:16:52.521Z,99091.03
2023-05-21T00:17:05.218Z,99095.47
2023-05-21T00:17:17.919Z,99094.59
2023-05-21T00:17:30.136Z,99093.78
2023-05-21T00:17:43.279Z,99095.69
2023-05-21T00:17:55.307Z,99095.69
2023-05-21T00:18:07.395Z,99093.06
2023-05-21T00:18:19.388Z,99098.44
2023-05-21T00:18:32.543Z,99094.84
2023-05-21T00:18:45.197Z,99093.06
2023-05-21T00:18:58.097Z,99095.69
2023-05-21T00:19:10.330Z,99086.13
2023-05-21T00:19:22.533Z,99095.69
2023-05-21T00:19:34.584Z,99094.94
2023-05-21T00:19:46.582Z,99088.75
2023-05-21T00:20:00.059Z,99092.31
2023-05-21T00:20:12.931Z,99095.91
2023-05-21T00:20:24.940Z,99094.22
2023-05-21T00:20:37.168Z,99092.56
2023-05-21T00:20:49.135Z,99096.94
2023-05-21T00:21:01.732Z,99097.81
2023-05-21T00:21:14.170Z,99093.38
2023-05-21T00:21:26.723Z,99101.38
2023-05-21T00:21:39.509Z,99099.72
2023-05-21T00:21:51.606Z,99093.72
2023-05-21T00:22:04.433Z,99092.16
2023-05-21T00:22:16.857Z,99095.75
2023-05-21T00:22:28.835Z,99093.22
2023-05-21T00:22:42.250Z,99088.19
2023-05-21T00:22:54.691Z,99089.97
2023-05-21T00:23:06.641Z,99094.53
2023-05-21T00:23:19.374Z,99091.16
2023-05-21T00:23:32.815Z,99087.81
2023-05-21T00:23:45.409Z,99086.16
2023-05-21T00:23:57.399Z,99096.78
2023-05-21T00:24:09.395Z,99090.78
2023-05-21T00:24:21.433Z,99096.06
2023-05-21T00:24:33.425Z,99093.53
2023-05-21T00:24:45.963Z,99095.34
2023-05-21T00:24:57.907Z,99083.25
2023-05-21T00:25:11.568Z,99092.91
2023-05-21T00:25:23.671Z,99092.19
2023-05-21T00:25:35.888Z,99093.16
2023-05-21T00:25:48.050Z,99094.81
2023-05-21T00:26:00.145Z,99095.78
2023-05-21T00:26:12.156Z,99093.16
2023-05-21T00:26:24.577Z,99090.63
2023-05-21T00:26:36.574Z,99089.56
2023-05-21T00:26:48.601Z,99093.16
2023-05-21T00:27:00.957Z,99088.72
2023-05-21T00:27:13.655Z,99095.78
2023-05-21T00:27:25.664Z,99087.06
2023-05-21T00:27:38.053Z,99095.06
2023-05-21T00:27:50.268Z,99089.81
2023-05-21T00:28:02.593Z,99090.00
2023-05-21T00:28:14.615Z,99084.75
2023-05-21T00:28:26.722Z,99086.66
2023-05-21T00:28:38.692Z,99092.88
2023-05-21T00:28:50.750Z,99092.88
2023-05-21T00:29:02.961Z,99092.88
2023-05-21T00:29:15.037Z,99092.03
2023-05-21T00:29:27.817Z,99078.88
2023-05-21T00:29:40.635Z,99090.13
2023-05-21T00:29:53.314Z,99088.34
2023-05-21T00:30:05.969Z,99089.06
2023-05-21T00:30:17.977Z,99089.91
2023-05-21T00:30:29.948Z,99091.59
2023-05-21T00:30:43.069Z,99092.53
2023-05-21T00:30:55.011Z,99083.81
2023-05-21T00:31:07.462Z,99090.00
2023-05-21T00:31:19.518Z,99088.25
2023-05-21T00:31:32.187Z,99093.00
2023-05-21T00:31:44.389Z,99094.78
2023-05-21T00:31:56.654Z,99091.19
2023-05-21T00:32:08.799Z,99092.16
2023-05-21T00:32:21.283Z,99090.47
2023-05-21T00:32:33.281Z,99087.09
2023-05-21T00:32:45.402Z,99085.44
2023-05-21T00:32:58.673Z,99090.72
2023-05-21T00:33:13.811Z,99090.72
2023-05-21T00:33:29.097Z,99087.34
2023-05-21T00:33:41.068Z,99085.66
2023-05-21T00:33:53.098Z,99090.91
2023-05-21T00:34:05.079Z,99087.56
2023-05-21T00:34:17.116Z,99090.28
2023-05-21T00:34:29.602Z,99088.75
2023-05-21T00:34:41.577Z,99087.06
2023-05-21T00:34:54.607Z,99082.84
2023-05-21T00:35:07.772Z,99083.00
2023-05-21T00:35:19.887Z,99089.09
2023-05-21T00:35:31.824Z,99084.66
2023-05-21T00:35:43.980Z,99086.56
2023-05-21T00:35:56.867Z,99080.47
2023-05-21T00:36:08.993Z,99084.91
2023-05-21T00:36:23.595Z,99087.53
2023-05-21T00:36:35.612Z,99085.94
2023-05-21T00:36:47.713Z,99085.09
2023-05-21T00:37:02.657Z,99088.47
2023-05-21T00:37:15.252Z,99083.19
2023-05-21T00:37:29.731Z,99091.09
2023-05-21T00:37:42.180Z,99076.25
2023-05-21T00:37:54.104Z,99083.31
2023-05-21T00:38:08.468Z,99083.41
2023-05-21T00:38:20.607Z,99083.31
2023-05-21T00:38:33.030Z,99080.66
2023-05-21T00:38:45.964Z,99077.22
2023-05-21T00:38:58.067Z,99081.50
2023-05-21T00:39:10.097Z,99081.50
2023-05-21T00:39:22.080Z,99077.09
2023-05-21T00:39:34.074Z,99080.56
2023-05-21T00:39:46.251Z,99077.94
2023-05-21T00:39:58.449Z,99084.91
2023-05-21T00:40:11.644Z,99084.03
2023-05-21T00:40:23.670Z,99077.94
2023-05-21T00:40:36.282Z,99079.84
2023-05-21T00:40:48.330Z,99080.78
2023-05-21T00:41:03.471Z,99072.88
2023-05-21T00:41:16.635Z,99084.38
2023-05-21T00:41:30.120Z,99082.56
2023-05-21T00:41:43.077Z,99080.78
2023-05-21T00:41:56.848Z,99079.84
2023-05-21T00:42:09.057Z,99085.09
2023-05-21T00:42:21.084Z,99078.88
2023-05-21T00:42:33.664Z,99081.50
2023-05-21T00:42:47.898Z,99086.75
2023-05-21T00:42:59.843Z,99074.59
2023-05-21T00:43:11.790Z,99082.25
2023-05-21T00:43:26.432Z,99072.56
2023-05-21T00:43:42.034Z,99074.25
2023-05-21T00:43:54.024Z,99079.41
2023-05-21T00:44:09.293Z,99080.22
2023-05-21T00:44:21.218Z,99080.22
2023-05-21T00:44:34.483Z,99073.31
2023-05-21T00:44:46.665Z,99075.81
2023-05-21T00:44:58.613Z,99074.13
2023-05-21T00:45:10.593Z,99077.59
2023-05-21T00:45:25.450Z,99079.41
2023-05-21T00:45:37.814Z,99075.81
2023-05-21T00:45:50.162Z,99075.81
2023-05-21T00:46:02.767Z,99077.59
2023-05-21T00:46:17.875Z,99072.47
2023-05-21T00:46:30.346Z,99077.72
2023-05-21T00:46:44.277Z,99076.88
2023-05-21T00:46:56.383Z,99079.41
2023-05-21T00:47:09.003Z,99074.84
2023-05-21T00:47:21.636Z,99076.56
2023-05-21T00:47:35.752Z,99075.59
2023-05-21T00:47:48.430Z,99076.75
2023-05-21T00:48:02.678Z,99078.78
2023-05-21T00:48:14.914Z,99070.97
2023-05-21T00:48:27.530Z,99076.47
2023-05-21T00:48:39.778Z,99076.59
2023-05-21T00:48:52.380Z,99072.88
2023-05-21T00:49:04.646Z,99070.25
2023-05-21T00:49:17.026Z,99072.88
2023-05-21T00:49:29.254Z,99079.84
2023-05-21T00:49:41.460Z,99075.53
2023-05-21T00:49:53.504Z,99072.88
2023-05-21T00:50:06.420Z,99069.31
2023-05-21T00:50:18.549Z,99069.31
2023-05-21T00:50:31.954Z,99075.41
2023-05-21T00:50:44.874Z,99074.59
2023-05-21T00:50:56.892Z,99072.06
2023-05-21T00:51:09.036Z,99071.84
2023-05-21T00:51:21.796Z,99076.25
2023-05-21T00:51:34.009Z,99070.97
2023-05-21T00:51:46.024Z,99070.06
2023-05-21T00:52:01.306Z,99072.69
2023-05-21T00:52:13.238Z,99067.41
2023-05-21T00:52:27.053Z,99071.84
2023-05-21T00:52:41.764Z,99069.22
2023-05-21T00:52:54.366Z,99074.47
2023-05-21T00:53:09.993Z,99069.31
2023-05-21T00:53:21.974Z,99072.88
2023-05-21T00:53:36.960Z,99077.22
2023-05-21T00:53:54.866Z,99067.88
2023-05-21T00:54:08.205Z,99076.47
2023-05-21T00:54:20.849Z,99065.97
2023-05-21T00:54:33.023Z,99064.16
2023-05-21T00:54:44.982Z,99067.63
2023-05-21T00:54:57.057Z,99070.16
2023-05-21T00:55:10.508Z,99069.31
2023-05-21T00:55:22.481Z,99071.75
2023-05-21T00:55:34.684Z,99063.00
2023-05-21T00:55:47.078Z,99072.69
2023-05-21T00:55:59.147Z,99062.16
2023-05-21T00:56:11.357Z,99070.88
2023-05-21T00:56:24.635Z,99072.69
2023-05-21T00:56:37.298Z,99067.41
2023-05-21T00:56:49.589Z,99069.13
2023-05-21T00:57:03.828Z,99066.34
2023-05-21T00:57:20.602Z,99074.13
2023-05-21T00:57:33.293Z,99060.16
2023-05-21T00:57:45.986Z,99072.34
2023-05-21T00:57:58.032Z,99065.31
2023-05-21T00:58:10.696Z,99074.97
2023-05-21T00:58:22.872Z,99067.06
2023-05-21T00:58:35.488Z,99061.72
2023-05-21T00:58:47.978Z,99067.81
2023-05-21T00:59:00.121Z,99062.44
2023-05-21T00:59:12.259Z,99065.06
2023-05-21T00:59:24.522Z,99062.44
2023-05-21T00:59:36.703Z,99066.75
2023-05-21T00:59:53.096Z,99066.75
2023-05-21T01:00:08.680Z,99063.16
2023-05-21T01:00:21.256Z,99064.84
2023-05-21T01:00:34.466Z,99066.50
2023-05-21T01:00:47.130Z,99063.88
2023-05-21T01:01:03.646Z,99066.31
2023-05-21T01:01:16.136Z,99069.03
2023-05-21T01:01:34.021Z,99064.59
2023-05-21T01:01:46.218Z,99065.44
2023-05-21T01:02:04.145Z,99063.66
2023-05-21T01:02:18.081Z,99068.94
2023-05-21T01:02:33.111Z,99064.41
2023-05-21T01:02:46.117Z,99064.41
2023-05-21T01:02:58.331Z,99069.66
2023-05-21T01:03:12.067Z,99066.06
2023-05-21T01:03:24.384Z,99061.78
2023-05-21T01:03:38.578Z,99060.06
2023-05-21T01:03:52.459Z,99067.97
2023-05-21T01:04:04.994Z,99063.44
2023-05-21T01:04:17.749Z,99066.91
2023-05-21T01:04:31.142Z,99066.06
2023-05-21T01:04:43.199Z,99066.78
2023-05-21T01:04:56.116Z,99070.38
2023-05-21T01:05:08.357Z,99059.00
2023-05-21T01:05:22.027Z,99059.13
2023-05-21T01:05:34.239Z,99063.44
2023-05-21T01:05:46.894Z,99060.78
2023-05-21T01:06:01.711Z,99064.16
2023-05-21T01:06:14.124Z,99064.25
2023-05-21T01:06:26.121Z,99066.91
2023-05-21T01:06:38.344Z,99062.59
2023-05-21T01:06:50.353Z,99061.63
2023-05-21T01:07:02.307Z,99068.59
2023-05-21T01:07:14.613Z,99066.06
2023-05-21T01:07:26.604Z,99064.16
2023-05-21T01:07:41.520Z,99063.22
2023-05-21T01:07:54.035Z,99065.84
2023-05-21T01:08:07.604Z,99064.16
2023-05-21T01:08:23.510Z,99059.00
2023-05-21T01:08:37.509Z,99062.50
2023-05-21T01:08:50.926Z,99058.16
2023-05-21T01:09:05.395Z,99060.78
2023-05-21T01:09:17.929Z,99067.97
2023-05-21T01:09:29.935Z,99065.44
2023-05-21T01:09:42.481Z,99063.78
2023-05-21T01:09:54.541Z,99058.88
2023-05-21T01:10:08.479Z,99065.06
2023-05-21T01:10:20.691Z,99063.41
2023-05-21T01:10:32.753Z,99059.06
2023-05-21T01:10:44.883Z,99067.81
2023-05-21T01:10:57.702Z,99060.25
2023-05-21T01:11:10.812Z,99063.84
2023-05-21T01:11:31.198Z,99054.78
2023-05-21T01:11:47.669Z,99060.88
2023-05-21T01:12:00.948Z,99058.13
2023-05-21T01:12:13.898Z,99059.06
2023-05-21T01:12:26.165Z,99066.88
2023-05-21T01:12:39.922Z,99064.13
2023-05-21T01:12:54.082Z,99056.22
2023-05-21T01:13:06.192Z,99057.06
2023-05-21T01:13:18.579Z,99062.31
2023-05-21T01:13:31.528Z,99057.06
2023-05-21T01:13:44.526Z,99057.91
2023-05-21T01:13:57.438Z,99059.44
2023-05-21T01:14:10.981Z,99051.69
2023-05-21T01:14:24.860Z,99056.81
2023-05-21T01:14:37.567Z,99060.31
2023-05-21T01:14:50.129Z,99054.09
2023-05-21T01:15:04.090Z,99056.81
2023-05-21T01:15:16.996Z,99056.00
2023-05-21T01:15:29.429Z,99054.34
2023-05-21T01:15:41.743Z,99059.59
2023-05-21T01:15:54.513Z,99051.81
2023-05-21T01:16:08.800Z,99054.34
2023-05-21T01:16:21.354Z,99056.22
2023-05-21T01:16:33.530Z,99057.91
2023-05-21T01:16:49.554Z,99052.53
2023-05-21T01:17:02.696Z,99055.16
2023-05-21T01:17:15.653Z,99052.41
2023-05-21T01:17:29.236Z,99057.69
2023-05-21T01:17:42.153Z,99054.09
2023-05-21T01:17:55.776Z,99056.72
2023-05-21T01:18:09.456Z,99059.34
2023-05-21T01:18:22.010Z,99059.34
2023-05-21T01:18:35.398Z,99057.69
2023-05-21T01:18:47.784Z,99057.69
2023-05-21T01:19:00.000Z,99062.94
2023-05-21T01:19:16.830Z,99059.59
2023-05-21T01:19:29.533Z,99059.59
2023-05-21T01:19:44.369Z,99057.16
2023-05-21T01:19:58.236Z,99058.88
2023-05-21T01:20:10.816Z,99056.22
2023-05-21T01:20:24.281Z,99056.44
2023-05-21T01:20:37.775Z,99056.34
2023-05-21T01:20:50.206Z,99057.16
2023-05-21T01:21:02.614Z,99052.88
2023-05-21T01:21:17.402Z,99051.91
2023-05-21T01:21:30.669Z,99051.91
2023-05-21T01:21:46.362Z,99054.44
2023-05-21T01:22:04.859Z,99056.22
2023-05-21T01:22:18.238Z,99050.97
2023-05-21T01:22:32.516Z,99051.81
2023-05-21T01:22:54.335Z,99054.53
2023-05-21T01:23:06.556Z,99056.22
2023-05-21T01:23:19.227Z,99052.88
2023-05-21T01:23:31.882Z,99053.72
2023-05-21T01:23:43.943Z,99050.25
2023-05-21T01:23:56.448Z,99058.13
2023-05-21T01:24:08.440Z,99055.50
2023-05-21T01:24:20.546Z,99056.44
2023-05-21T01:24:32.681Z,99042.34
2023-05-21T01:24:47.604Z,99050.97
2023-05-21T01:25:02.583Z,99055.25
2023-05-21T01:25:15.034Z,99051.69
2023-05-21T01:25:27.135Z,99056.22
2023-05-21T01:25:39.130Z,99057.91
2023-05-21T01:25:51.254Z,99055.25
2023-05-21T01:26:03.239Z,99052.63
2023-05-21T01:26:16.013Z,99056.00
2023-05-21T01:26:28.523Z,99055.16
2023-05-21T01:26:44.665Z,99050.72
2023-05-21T01:26:58.640Z,99052.41
2023-05-21T01:27:10.715Z,99050.72
2023-05-21T01:27:22.956Z,99054.19
2023-05-21T01:27:34.926Z,99053.25
2023-05-21T01:27:46.939Z,99054.09
2023-05-21T01:27:58.920Z,99054.91
2023-05-21T01:28:11.357Z,99054.09
2023-05-21T01:28:23.347Z,99055.78
2023-05-21T01:28:35.361Z,99055.88
2023-05-21T01:28:47.918Z,99053.16
2023-05-21T01:28:59.880Z,99050.53
2023-05-21T01:29:13.033Z,99055.88
2023-05-21T01:29:25.075Z,99054.19
2023-05-21T01:29:37.095Z,99055.06
2023-05-21T01:29:49.434Z,99056.09
2023-05-21T01:30:01.660Z,99052.88
2023-05-21T01:30:14.337Z,99053.81
2023-05-21T01:30:26.633Z,99053.81
2023-05-21T01:30:41.099Z,99052.16
2023-05-21T01:30:53.159Z,99051.44
2023-05-21T01:31:26.831Z,99057.63
2023-05-21T01:32:03.141Z,99056.91
2023-05-21T01:32:40.343Z,99046.00
2023-05-21T01:33:02.762Z,99052.28
2023-05-21T01:33:33.565Z,99049.81
2023-05-21T01:33:49.930Z,99043.69
2023-05-21T01:34:07.860Z,99055.91
2023-05-21T01:34:23.949Z,99051.47
2023-05-21T01:34:59.114Z,99044.19
2023-05-21T01:35:13.095Z,99047.66
2023-05-21T01:35:35.926Z,99048.50
2023-05-21T01:35:54.011Z,99049.22
2023-05-21T01:36:15.790Z,99048.28
2023-05-21T01:36:34.818Z,99047.31
2023-05-21T01:36:53.038Z,99049.22
2023-05-21T01:37:22.585Z,99048.50
2023-05-21T01:37:51.548Z,99045.38
2023-05-21T01:38:09.441Z,99047.28
2023-05-21T01:38:37.666Z,99046.56
2023-05-21T01:39:02.182Z,99044.13
2023-05-21T01:39:21.238Z,99055.50
2023-05-21T01:39:39.979Z,99050.25
2023-05-21T01:40:05.858Z,99055.63
2023-05-21T01:40:38.495Z,99046.03
2023-05-21T01:41:03.770Z,99046.91
2023-05-21T01:41:18.498Z,99048.66
2023-05-21T01:41:34.741Z,99046.03
2023-05-21T01:41:48.115Z,99043.31
2023-05-21T01:42:03.517Z,99048.56
2023-05-21T01:42:18.176Z,99049.38
2023-05-21T01:42:32.163Z,99051.09
2023-05-21T01:42:45.793Z,99047.50
2023-05-21T01:42:58.485Z,99049.19
2023-05-21T01:43:11.631Z,99050.00
2023-05-21T01:43:27.708Z,99048.94
2023-05-21T01:43:42.541Z,99050.63
2023-05-21T01:43:56.970Z,99048.72
2023-05-21T01:44:09.782Z,99048.72
2023-05-21T01:44:23.265Z,99050.41
2023-05-21T01:44:36.109Z,99043.38
2023-05-21T01:44:51.530Z,99052.09
2023-05-21T01:45:06.911Z,99046.00
2023-05-21T01:45:20.913Z,99052.91
2023-05-21T01:45:34.601Z,99046.81
2023-05-21T01:45:47.700Z,99041.56
2023-05-21T01:46:01.762Z,99052.91
2023-05-21T01:46:19.415Z,99046.81
2023-05-21T01:46:35.109Z,99044.19
2023-05-21T01:46:47.303Z,99050.41
2023-05-21T01:46:59.937Z,99043.47
2023-05-21T01:47:12.712Z,99043.47
2023-05-21T01:47:29.383Z,99042.50
2023-05-21T01:47:45.048Z,99047.03
2023-05-21T01:47:57.876Z,99048.84
2023-05-21T01:48:12.127Z,99046.31
2023-05-21T01:48:27.102Z,99046.31
2023-05-21T01:48:39.311Z,99042.97
2023-05-21T01:48:53.321Z,99046.44
2023-05-21T01:49:06.236Z,99042.03
2023-05-21T01:49:19.258Z,99046.31
2023-05-21T01:49:31.360Z,99041.78
2023-05-21T01:49:43.658Z,99049.66
2023-05-21T01:49:56.550Z,99048.72
2023-05-21T01:50:09.496Z,99046.09
2023-05-21T01:50:27.444Z,99048.72
2023-05-21T01:50:40.988Z,99046.09
2023-05-21T01:50:55.259Z,99043.47
2023-05-21T01:51:07.629Z,99051.47
2023-05-21T01:51:20.074Z,99040.13
2023-05-21T01:51:32.738Z,99043.69
2023-05-21T01:51:45.865Z,99045.38
2023-05-21T01:51:57.858Z,99043.47
2023-05-21T01:52:09.812Z,99044.41
2023-05-21T01:52:21.918Z,99046.22
2023-05-21T01:52:33.936Z,99041.69
2023-05-21T01:52:52.870Z,99042.66
2023-05-21T01:53:05.939Z,99043.38
2023-05-21T01:53:18.180Z,99046.81
2023-05-21T01:53:30.458Z,99043.22
2023-05-21T01:53:42.585Z,99047.75
2023-05-21T01:53:54.547Z,99042.41
2023-05-21T01:54:06.534Z,99042.41
2023-05-21T01:54:18.513Z,99041.56
2023-05-21T01:54:30.482Z,99045.13
2023-05-21T01:54:42.409Z,99042.50
2023-05-21T01:54:55.760Z,99039.88
2023-05-21T01:55:07.958Z,99045.13
2023-05-21T01:55:26.051Z,99042.66
2023-05-21T01:55:41.870Z,99043.47
2023-05-21T01:55:54.570Z,99052.28
2023-05-21T01:56:07.180Z,99041.78
2023-05-21T01:56:19.264Z,99044.41
2023-05-21T01:56:33.779Z,99040.84
2023-05-21T01:56:46.036Z,99041.69
2023-05-21T01:56:58.191Z,99041.78
2023-05-21T01:57:10.241Z,99041.78
2023-05-21T01:57:22.430Z,99040.94
2023-05-21T01:57:34.415Z,99040.84
2023-05-21T01:57:46.397Z,99041.78
2023-05-21T01:58:01.942Z,99042.84
2023-05-21T01:58:18.874Z,99044.53
2023-05-21T01:58:30.862Z,99044.41
2023-05-21T01:58:44.010Z,99041.78
2023-05-21T01:58:57.033Z,99044.31
2023-05-21T01:59:09.099Z,99039.03
2023-05-21T01:59:21.085Z,99045.13
2023-05-21T01:59:33.394Z,99046.81
2023-05-21T01:59:45.615Z,99039.88
2023-05-21T01:59:57.965Z,99042.50
2023-05-21T02:00:11.050Z,99039.03
2023-05-21T02:00:25.438Z,99030.22
2023-05-21T02:00:37.466Z,99036.41
2023-05-21T02:00:52.101Z,99043.38
2023-05-21T02:01:05.057Z,99042.41
2023-05-21T02:01:17.076Z,99038.94
2023-05-21T02:01:31.723Z,99039.66
2023-05-21T02:01:43.821Z,99034.41
2023-05-21T02:01:55.938Z,99034.41
2023-05-21T02:02:08.008Z,99042.28
2023-05-21T02:02:20.135Z,99037.75
2023-05-21T02:02:32.346Z,99037.75
2023-05-21T02:02:44.431Z,99039.41
2023-05-21T02:02:56.696Z,99035.84
2023-05-21T02:03:09.096Z,99036.94
2023-05-21T02:03:33.961Z,99035.03
2023-05-21T02:03:46.129Z,99038.50
2023-05-21T02:03:58.442Z,99036.94
2023-05-21T02:04:10.559Z,99029.88
2023-05-21T02:04:22.545Z,99041.31
2023-05-21T02:04:34.549Z,99041.31
2023-05-21T02:04:46.675Z,99040.50
2023-05-21T02:04:58.619Z,99034.41
2023-05-21T02:05:10.716Z,99034.41
2023-05-21T02:05:22.721Z,99038.84
2023-05-21T02:05:35.270Z,99036.31
2023-05-21T02:05:47.603Z,99031.03
2023-05-21T02:05:59.603Z,99036.53
2023-05-21T02:06:11.666Z,99035.59
2023-05-21T02:06:24.277Z,99036.53
2023-05-21T02:06:36.807Z,99039.16
2023-05-21T02:06:48.788Z,99034.03
2023-05-21T02:07:00.760Z,99035.69
2023-05-21T02:07:15.012Z,99034.84
2023-05-21T02:07:28.871Z,99040.13
2023-05-21T02:07:41.006Z,99034.84
2023-05-21T02:07:53.285Z,99029.59
2023-05-21T02:08:05.444Z,99036.53
2023-05-21T02:08:19.603Z,99032.13
2023-05-21T02:08:31.577Z,99031.25
2023-05-21T02:08:45.520Z,99033.88
2023-05-21T02:08:57.571Z,99029.59
2023-05-21T02:09:09.534Z,99038.22
2023-05-21T02:09:21.530Z,99040.13
2023-05-21T02:09:33.496Z,99034.84
2023-05-21T02:09:45.490Z,99038.41
2023-05-21T02:09:57.486Z,99035.06
2023-05-21T02:10:10.052Z,99036.97
2023-05-21T02:10:22.010Z,99034.34
2023-05-21T02:10:34.946Z,99034.34
2023-05-21T02:10:47.041Z,99030.03
2023-05-21T02:10:59.028Z,99042.22
2023-05-21T02:11:11.251Z,99036.97
2023-05-21T02:11:23.670Z,99033.50
2023-05-21T02:11:35.624Z,99031.72
2023-05-21T02:11:47.664Z,99030.88
2023-05-21T02:11:59.681Z,99035.31
2023-05-21T02:12:11.673Z,99033.63
2023-05-21T02:12:23.648Z,99033.63
2023-05-21T02:12:35.899Z,99031.13
2023-05-21T02:12:47.968Z,99029.31
2023-05-21T02:12:59.998Z,99031.13
2023-05-21T02:13:12.110Z,99035.50
2023-05-21T02:13:26.558Z,99030.25
2023-05-21T02:13:42.500Z,99028.50
2023-05-21T02:13:54.533Z,99039.13
2023-05-21T02:14:07.948Z,99030.50
2023-05-21T02:14:20.535Z,99030.50
2023-05-21T02:14:33.753Z,99033.13
2023-05-21T02:14:50.403Z,99030.50
2023-05-21T02:15:02.915Z,99037.41
2023-05-21T02:15:17.764Z,99041.00
2023-05-21T02:15:30.264Z,99032.16
2023-05-21T02:15:42.295Z,99030.41
2023-05-21T02:15:54.981Z,99030.25
2023-05-21T02:16:11.549Z,99030.97
2023-05-21T02:16:23.566Z,99034.47
2023-05-21T02:16:35.767Z,99021.44
2023-05-21T02:16:47.835Z,99030.25
2023-05-21T02:17:00.842Z,99032.16
2023-05-21T02:17:12.853Z,99031.22
2023-05-21T02:17:24.843Z,99035.66
2023-05-21T02:17:38.877Z,99033.03
2023-05-21T02:17:51.329Z,99033.03
2023-05-21T02:18:04.279Z,99034.06
2023-05-21T02:18:16.809Z,99030.50
2023-05-21T02:18:29.221Z,99030.50
2023-05-21T02:18:44.093Z,99033.13
2023-05-21T02:18:57.952Z,99030.59
2023-05-21T02:19:10.498Z,99028.94
2023-05-21T02:19:22.608Z,99027.13
2023-05-21T02:19:34.859Z,99029.03
2023-05-21T02:19:46.902Z,99032.59
2023-05-21T02:20:07.123Z,99027.56
2023-05-21T02:20:19.598Z,99026.81
2023-05-21T02:20:31.577Z,99030.28
2023-05-21T02:20:43.764Z,99029.47
2023-05-21T02:20:55.802Z,99027.75
2023-05-21T02:21:07.857Z,99026.94
2023-05-21T02:21:20.664Z,99028.00
2023-05-21T02:21:32.756Z,99027.59
2023-05-21T02:21:45.777Z,99021.50
2023-05-21T02:21:57.826Z,99021.72
2023-05-21T02:22:09.758Z,99026.38
2023-05-21T02:22:21.684Z,99028.16
2023-05-21T02:22:33.714Z,99024.66
2023-05-21T02:22:47.779Z,99027.41
2023-05-21T02:22:59.772Z,99024.91
2023-05-21T02:23:11.834Z,99029.28
2023-05-21T02:23:23.805Z,99024.91
2023-05-21T02:23:36.093Z,99026.81
2023-05-21T02:23:48.077Z,99019.03
2023-05-21T02:24:00.151Z,99022.59
2023-05-21T02:24:12.237Z,99026.91
2023-05-21T02:24:24.477Z,99014.69
2023-05-21T02:24:36.475Z,99029.53
2023-05-21T02:24:48.968Z,99020.91
2023-05-21T02:25:01.045Z,99019.97
2023-05-21T02:25:14.853Z,99025.94
2023-05-21T02:25:26.894Z,99028.47
2023-05-21T02:25:39.057Z,99028.56
2023-05-21T02:25:51.045Z,99031.19
2023-05-21T02:26:03.826Z,99025.09
2023-05-21T02:26:17.535Z,99024.28
2023-05-21T02:26:29.524Z,99020.69
2023-05-21T02:26:43.300Z,99027.63
2023-05-21T02:26:55.649Z,99021.34
2023-05-21T02:27:07.680Z,99021.78
2023-05-21T02:27:19.641Z,99021.38
2023-05-21T02:27:32.441Z,99029.16
2023-05-21T02:27:46.506Z,99028.31
2023-05-21T02:27:58.530Z,99024.63
2023-05-21T02:28:10.541Z,99018.44
2023-05-21T02:28:23.842Z,99024.53
2023-05-21T02:28:36.374Z,99025.34
2023-05-21T02:28:48.418Z,99022.72
2023-05-21T02:29:00.702Z,99015.09
2023-05-21T02:29:12.629Z,99018.63
2023-05-21T02:29:24.641Z,99022.97
2023-05-21T02:29:36.824Z,99025.78
2023-05-21T02:29:48.789Z,99019.59
2023-05-21T02:30:08.418Z,99020.53
2023-05-21T02:30:21.017Z,99016.97
2023-05-21T02:30:33.092Z,99019.91
2023-05-21T02:30:45.109Z,99018.44
2023-05-21T02:30:57.565Z,99020.91
2023-05-21T02:31:09.541Z,99021.34
2023-05-21T02:31:21.516Z,99024.34
2023-05-21T02:31:33.535Z,99022.88
2023-05-21T02:31:45.566Z,99022.16
2023-05-21T02:31:57.583Z,99023.13
2023-05-21T02:32:09.591Z,99018.38
2023-05-21T02:32:21.607Z,99016.81
2023-05-21T02:32:34.917Z,99013.63
2023-05-21T02:32:48.665Z,99015.75
2023-05-21T02:33:00.929Z,99024.53
2023-05-21T02:33:14.435Z,99018.16
2023-05-21T02:33:26.441Z,99020.88
2023-05-21T02:33:40.826Z,99019.81
2023-05-21T02:34:00.384Z,99014.28
2023-05-21T02:34:37.297Z,99019.09
2023-05-21T02:34:57.562Z,99018.03
2023-05-21T02:35:20.010Z,99019.63
2023-05-21T02:36:04.019Z,99021.97
2023-05-21T02:36:18.865Z,99016.59
2023-05-21T02:36:33.180Z,99015.84
2023-05-21T02:36:48.239Z,99023.53
2023-05-21T02:37:00.365Z,99018.06
2023-05-21T02:37:12.355Z,99016.41
2023-05-21T02:37:27.581Z,99019.03
2023-05-21T02:37:40.596Z,99019.22
2023-05-21T02:37:52.644Z,99014.84